Time;durP1;ratioP1;P1;durP2;ratioP2;P2;SDS_P1;SDS_P2;PMS_P1;PMS_P2;Temp;Humidity;BMP_temperature;BMP_pressure;BME280_temperature;BME280_humidity;BME280_pressure;Samples;Min_cycle;Max_cycle;Signal;HPM_P1;HPM_P2
2022/12/22 03:27:10;;;;;;;0.60;0.60;;;10.60;99.90;;;10.69;nan;99717.31;5010324;28;20613;-65
2022/12/22 03:29:37;;;;;;;2.93;1.13;;;10.60;99.90;;;10.76;nan;99726.25;5006403;28;20669;-65
2022/12/22 03:32:04;;;;;;;0.77;0.77;;;10.60;99.90;;;10.69;nan;99719.13;5010326;28;20629;-66
2022/12/22 03:34:31;;;;;;;1.50;0.97;;;10.60;99.90;;;10.89;nan;99718.19;5009145;28;20633;-65
2022/12/22 03:36:58;;;;;;;1.20;1.20;;;10.70;99.90;;;10.73;nan;99718.69;5010287;28;21244;-66
2022/12/22 03:39:25;;;;;;;0.93;0.93;;;10.70;99.90;;;10.69;nan;99712.09;5007602;28;21083;-66
2022/12/22 03:47:23;;;;;;;0.90;0.90;;;10.60;99.90;;;10.83;nan;99718.72;4992439;28;20643;-65
2022/12/22 03:49:50;;;;;;;1.10;0.80;;;10.70;99.90;;;10.81;nan;99711.03;5001621;28;20673;-66
2022/12/22 03:52:17;;;;;;;1.27;0.40;;;10.70;99.90;;;10.81;nan;99710.22;5010249;28;21057;-66
2022/12/22 03:54:44;;;;;;;0.67;0.60;;;10.70;99.90;;;10.80;nan;99709.38;5008116;28;20638;-66
2022/12/22 03:57:11;;;;;;;1.10;1.00;;;10.70;99.90;;;10.81;nan;99698.00;5009534;28;20676;-66
2022/12/22 03:59:38;;;;;;;2.53;0.90;;;10.70;99.90;;;10.91;nan;99698.00;4996750;28;20662;-65
2022/12/22 04:02:06;;;;;;;0.90;0.90;;;10.70;99.90;;;10.89;nan;99685.09;5007346;28;20637;-65
2022/12/22 04:04:33;;;;;;;0.70;0.70;;;10.80;99.90;;;10.98;nan;99686.06;4980899;28;20634;-66
2022/12/22 04:07:00;;;;;;;1.07;1.07;;;10.80;99.90;;;10.82;nan;99676.16;5006111;28;20656;-65
2022/12/22 04:09:28;;;;;;;0.70;0.70;;;10.80;99.90;;;10.91;nan;99677.13;5009264;28;20641;-66
2022/12/22 04:14:40;;;;;;;0.80;0.80;;;10.80;99.90;;;10.87;nan;99681.78;5009864;28;20625;-66
2022/12/22 04:17:08;;;;;;;0.60;0.60;;;10.80;99.90;;;10.89;nan;99679.88;4992234;28;21261;-66
2022/12/22 04:19:35;;;;;;;1.33;0.70;;;10.80;99.90;;;10.83;nan;99677.81;4992410;28;20711;-66
2022/12/22 04:22:02;;;;;;;0.60;0.60;;;10.80;99.90;;;10.87;nan;99673.13;5009911;28;20630;-66
2022/12/22 04:24:29;;;;;;;1.63;0.57;;;10.80;99.90;;;10.91;nan;99658.84;4990055;28;20627;-66
2022/12/22 04:26:56;;;;;;;0.70;0.70;;;10.80;99.90;;;10.96;nan;99661.91;5010707;28;20648;-66
2022/12/22 04:29:23;;;;;;;0.40;0.40;;;10.80;99.90;;;10.83;nan;99648.28;4995546;28;20776;-66
2022/12/22 04:31:50;;;;;;;0.60;0.60;;;10.80;99.90;;;10.96;nan;99640.19;5012465;28;20638;-63
2022/12/22 04:34:17;;;;;;;2.97;0.77;;;10.90;99.90;;;10.86;nan;99638.38;4996385;28;20605;-66
2022/12/22 04:36:44;;;;;;;0.60;0.60;;;10.80;99.90;;;10.83;nan;99640.44;5012885;28;20684;-65
2022/12/22 04:39:11;;;;;;;0.60;0.60;;;10.80;99.90;;;10.90;nan;99628.53;5013382;28;20638;-65
2022/12/22 04:41:38;;;;;;;0.67;0.67;;;10.80;99.90;;;10.92;nan;99632.63;5012358;28;20640;-66
2022/12/22 04:44:05;;;;;;;2.63;0.90;;;10.80;99.90;;;10.93;nan;99615.19;5013052;28;20629;-65
2022/12/22 04:46:32;;;;;;;0.73;0.73;;;10.80;99.90;;;11.01;nan;99628.38;5012756;28;20641;-64
2022/12/22 04:48:59;;;;;;;0.53;0.53;;;10.90;99.90;;;11.08;nan;99628.63;5012771;28;20623;-66
2022/12/22 04:51:27;;;;;;;0.83;0.70;;;10.90;99.90;;;11.02;nan;99621.38;5012434;28;20730;-66
2022/12/22 04:53:54;;;;;;;0.73;0.73;;;10.90;99.90;;;10.99;nan;99617.22;5013489;28;20982;-66
2022/12/22 04:56:21;;;;;;;0.50;0.50;;;10.90;99.90;;;10.97;nan;99616.56;5011172;28;20751;-66
2022/12/22 04:58:48;;;;;;;1.60;0.90;;;10.90;99.90;;;10.89;nan;99619.84;4979753;28;20613;-66
2022/12/22 05:01:17;;;;;;;2.00;1.03;;;10.80;99.90;;;10.95;nan;99618.47;5011934;28;20661;-65
2022/12/22 05:03:45;;;;;;;3.03;0.70;;;10.80;99.90;;;10.90;nan;99625.91;5012657;28;20620;-66
2022/12/22 05:06:12;;;;;;;0.50;0.50;;;10.80;99.90;;;10.81;nan;99622.34;4995045;28;20644;-66
2022/12/22 05:08:39;;;;;;;0.53;0.53;;;10.70;99.90;;;10.85;nan;99613.28;5012336;28;20614;-66
2022/12/22 05:11:06;;;;;;;0.70;0.70;;;10.80;99.90;;;10.77;nan;99626.19;4988203;28;21303;-66
2022/12/22 05:13:34;;;;;;;1.17;0.43;;;10.70;99.90;;;10.85;nan;99610.66;4993814;28;20614;-65
2022/12/22 05:16:10;;;;;;;0.80;0.80;;;10.80;99.90;;;10.75;nan;99619.44;4999958;28;21245;-66
2022/12/22 05:18:39;;;;;;;1.20;0.70;;;10.70;99.90;;;10.78;nan;99611.31;5011788;28;20630;-67
2022/12/22 05:21:14;;;;;;;0.50;0.50;;;10.70;99.90;;;10.66;nan;99604.59;5007526;28;20662;-66
2022/12/22 05:23:41;;;;;;;1.60;0.70;;;10.70;99.90;;;10.70;nan;99612.00;4979750;28;20636;-65
2022/12/22 05:26:09;;;;;;;1.67;0.80;;;10.60;99.90;;;10.77;nan;99604.47;4994045;28;21035;-66
2022/12/22 05:28:36;;;;;;;0.43;0.43;;;10.70;99.90;;;10.82;nan;99610.91;5012828;28;20645;-66
2022/12/22 05:31:16;;;;;;;1.33;0.87;;;10.70;99.90;;;10.70;nan;99613.78;5006205;28;20732;-66
2022/12/22 05:33:43;;;;;;;0.60;0.60;;;10.60;99.90;;;10.70;nan;99614.63;4994667;28;20608;-66
2022/12/22 05:36:10;;;;;;;0.57;0.57;;;10.70;99.90;;;10.76;nan;99618.47;5010853;28;20669;-66
2022/12/22 05:38:37;;;;;;;0.70;0.53;;;10.70;99.90;;;10.84;nan;99616.00;4994881;28;20626;-66
2022/12/22 05:41:05;;;;;;;0.50;0.50;;;10.70;99.90;;;10.85;nan;99610.66;5012258;28;20661;-66
2022/12/22 05:43:33;;;;;;;0.80;0.80;;;10.70;99.90;;;10.94;nan;99612.41;5011923;28;20626;-65
2022/12/22 05:46:03;;;;;;;0.73;0.73;;;10.70;99.90;;;10.88;nan;99607.75;5011767;28;21235;-66
2022/12/22 05:48:30;;;;;;;0.37;0.37;;;10.70;99.90;;;10.89;nan;99601.59;5011755;28;20636;-65
2022/12/22 05:51:03;;;;;;;0.93;0.30;;;10.80;99.90;;;10.88;nan;99607.75;5011994;28;20658;-66
2022/12/22 05:53:30;;;;;;;1.33;0.70;;;10.70;99.90;;;10.83;nan;99607.38;5011713;28;20614;-66
2022/12/22 05:55:57;;;;;;;0.40;0.40;;;10.70;99.90;;;10.89;nan;99606.81;5011265;28;20665;-66
2022/12/22 05:58:24;;;;;;;0.50;0.50;;;10.70;99.90;;;11.03;nan;99605.56;4994127;28;20620;-66
2022/12/22 06:00:59;;;;;;;0.37;0.37;;;10.80;99.90;;;10.94;nan;99607.19;5011386;28;20677;-66
2022/12/22 06:03:27;;;;;;;0.50;0.50;;;10.80;99.90;;;11.00;nan;99605.00;4994119;28;20652;-65
2022/12/22 06:05:55;;;;;;;0.40;0.40;;;10.90;99.90;;;11.10;nan;99611.06;4994120;28;20645;-66
2022/12/22 06:08:22;;;;;;;1.03;0.40;;;10.90;99.90;;;11.04;nan;99611.59;5011243;28;20621;-66
2022/12/22 06:10:52;;;;;;;1.00;0.60;;;10.90;99.90;;;10.93;nan;99613.41;4990718;28;20661;-65
2022/12/22 06:13:20;;;;;;;1.47;0.53;;;10.90;99.90;;;10.95;nan;99613.25;4993620;28;20644;-66
2022/12/22 06:15:48;;;;;;;0.30;0.30;;;10.90;99.90;;;11.07;nan;99611.34;5011391;28;20629;-66
2022/12/22 06:18:15;;;;;;;0.40;0.40;;;10.90;99.90;;;11.10;nan;99600.59;4990957;28;20712;-65
2022/12/22 06:20:45;;;;;;;0.50;0.50;;;10.90;99.90;;;11.16;nan;99607.91;5004386;28;20658;-66
2022/12/22 06:23:12;;;;;;;0.30;0.30;;;11.00;99.90;;;11.18;nan;99600.75;5006625;28;20631;-66
2022/12/22 06:25:39;;;;;;;3.13;1.00;;;11.00;99.90;;;11.13;nan;99597.72;4991480;28;20631;-66
2022/12/22 06:28:06;;;;;;;0.97;0.67;;;11.10;99.90;;;11.16;nan;99600.09;4976222;28;20631;-66
2022/12/22 06:30:33;;;;;;;0.80;0.80;;;11.10;99.90;;;11.37;nan;99609.38;5008701;28;20666;-66
2022/12/22 06:33:00;;;;;;;0.30;0.30;;;11.20;99.90;;;11.29;nan;99611.03;5010794;28;20626;-66
2022/12/22 06:35:27;;;;;;;0.60;0.60;;;11.20;99.90;;;11.37;nan;99614.59;4993459;28;20667;-65
2022/12/22 06:37:54;;;;;;;1.07;0.50;;;11.20;99.90;;;11.33;nan;99618.47;5012139;28;20665;-66
2022/12/22 06:40:21;;;;;;;1.13;0.80;;;11.20;99.90;;;11.30;nan;99604.88;4977238;28;20664;-66
2022/12/22 06:45:39;;;;;;;0.97;0.90;;;11.20;99.90;;;11.40;nan;99598.66;5010605;28;21185;-66
2022/12/22 06:48:07;;;;;;;0.60;0.60;;;11.20;99.90;;;11.52;nan;99607.19;5010243;28;21026;-66
2022/12/22 06:50:34;;;;;;;1.63;0.90;;;11.20;99.90;;;11.49;nan;99605.66;4981319;28;20673;-66
2022/12/22 06:53:02;;;;;;;1.90;1.50;;;11.30;99.90;;;11.40;nan;99603.06;4993826;28;20625;-66
2022/12/22 06:55:29;;;;;;;0.70;0.70;;;11.20;99.90;;;11.38;nan;99599.75;5011165;28;20642;-66
2022/12/22 06:57:56;;;;;;;2.17;0.90;;;11.20;99.90;;;11.29;nan;99595.38;5010756;28;20681;-66
2022/12/22 07:00:24;;;;;;;1.93;1.13;;;11.20;99.90;;;11.42;nan;99599.34;5006327;28;20669;-66
2022/12/22 07:02:51;;;;;;;1.03;0.90;;;11.20;99.90;;;11.36;nan;99591.25;5010012;28;20636;-65
2022/12/22 07:05:18;;;;;;;1.33;1.17;;;11.30;99.90;;;11.44;nan;99607.03;4993172;28;20630;-67
2022/12/22 07:07:45;;;;;;;0.73;0.73;;;11.20;99.90;;;11.56;nan;99613.75;5010195;28;20742;-67
2022/12/22 07:10:12;;;;;;;1.07;1.00;;;11.20;99.90;;;11.56;nan;99611.94;5010132;28;21314;-67
2022/12/22 07:12:40;;;;;;;0.47;0.47;;;11.30;99.90;;;11.55;nan;99628.59;5011392;28;20634;-67
2022/12/22 07:15:08;;;;;;;1.53;1.00;;;11.30;99.90;;;11.45;nan;99630.41;5010047;28;20638;-66
2022/12/22 07:17:35;;;;;;;2.33;1.20;;;11.40;99.90;;;11.55;nan;99633.00;5010351;28;20661;-67
2022/12/22 07:20:03;;;;;;;5.30;1.00;;;11.30;99.90;;;11.59;nan;99632.59;5009014;28;20661;-65
2022/12/22 07:22:30;;;;;;;1.67;1.07;;;11.40;99.90;;;11.62;nan;99640.16;5011234;28;20614;-67
2022/12/22 07:24:57;;;;;;;2.73;0.97;;;11.40;99.90;;;11.56;nan;99640.69;5010179;28;21003;-66
2022/12/22 07:27:24;;;;;;;0.77;0.53;;;11.40;99.90;;;11.67;nan;99643.19;4977476;28;20625;-65
2022/12/22 07:29:51;;;;;;;0.93;0.70;;;11.40;99.90;;;11.72;nan;99641.94;5008663;28;20669;-66
2022/12/22 07:32:18;;;;;;;3.03;1.27;;;11.40;99.90;;;11.69;nan;99643.06;5010181;28;20642;-66
2022/12/22 07:34:45;;;;;;;2.47;1.10;;;11.40;99.90;;;11.80;nan;99636.84;5010172;28;20614;-67
2022/12/22 07:37:12;;;;;;;1.30;0.70;;;11.50;99.90;;;11.83;nan;99642.59;5010774;28;20673;-66
2022/12/22 07:39:39;;;;;;;2.00;1.10;;;11.50;99.90;;;11.90;nan;99643.69;5009925;28;21015;-66
2022/12/22 07:44:56;;;;;;;0.83;0.70;;;11.60;99.90;;;11.98;nan;99635.94;5009225;28;20630;-66
2022/12/22 07:47:23;;;;;;;1.57;0.80;;;11.70;99.90;;;11.96;nan;99626.59;5010274;28;20637;-67
2022/12/22 07:52:38;;;;;;;1.43;1.10;;;11.70;99.90;;;12.02;nan;99615.56;5009198;28;22193;-66
2022/12/22 07:55:06;;;;;;;2.20;1.00;;;11.70;99.90;;;11.95;nan;99623.16;4992359;28;20743;-66
2022/12/22 07:57:34;;;;;;;2.77;1.30;;;11.70;99.90;;;12.05;nan;99610.84;4991886;28;20669;-66
2022/12/22 08:00:02;;;;;;;5.60;1.20;;;11.70;99.90;;;12.02;nan;99624.25;5009574;28;20670;-66
2022/12/22 08:02:29;;;;;;;0.73;0.70;;;11.80;99.90;;;11.85;nan;99624.97;5012664;28;20691;-66
2022/12/22 08:05:03;;;;;;;0.90;0.70;;;11.70;99.90;;;12.06;nan;99633.44;5013491;28;20614;-66
2022/12/22 08:07:31;;;;;;;0.77;0.70;;;11.70;99.90;;;12.08;nan;99636.72;4996507;28;20645;-66
2022/12/22 08:09:58;;;;;;;4.40;1.33;;;11.80;99.90;;;12.14;nan;99625.69;5013837;28;20641;-66
2022/12/22 08:12:26;;;;;;;1.67;0.60;;;11.80;99.90;;;12.22;nan;99632.84;5014298;28;20630;-65
2022/12/22 08:14:53;;;;;;;2.63;0.80;;;11.90;99.90;;;12.29;nan;99633.88;4995987;28;20642;-66
2022/12/22 08:17:20;;;;;;;1.03;0.70;;;12.00;99.90;;;12.33;nan;99615.13;5014163;28;20685;-66
2022/12/22 08:19:47;;;;;;;2.00;0.80;;;12.00;99.90;;;12.43;nan;99636.03;5007590;28;20661;-66
2022/12/22 08:22:14;;;;;;;2.63;0.70;;;12.10;99.90;;;12.47;nan;99637.38;5011329;28;20638;-66
2022/12/22 08:24:41;;;;;;;2.70;0.97;;;12.10;99.90;;;12.41;nan;99635.34;5013136;28;21231;-66
2022/12/22 08:27:13;;;;;;;0.80;0.80;;;12.10;99.90;;;12.57;nan;99642.53;5014388;28;20639;-66
2022/12/22 08:29:46;;;;;;;1.93;0.70;;;12.20;99.90;;;12.75;nan;99630.31;4992067;28;20667;-66
2022/12/22 08:32:13;;;;;;;1.80;1.00;;;12.30;99.90;;;12.78;nan;99620.38;4993356;28;20623;-65
2022/12/22 08:34:40;;;;;;;3.93;1.00;;;12.40;99.90;;;12.79;nan;99629.88;4993339;28;20614;-67
2022/12/22 08:37:14;;;;;;;4.20;1.10;;;12.50;99.90;;;12.96;nan;99625.63;4977826;28;20666;-66
2022/12/22 08:39:44;;;;;;;4.00;0.90;;;12.50;99.90;;;12.97;nan;99630.69;4987535;28;20653;-66
2022/12/22 08:42:16;;;;;;;1.07;0.90;;;12.60;99.90;;;12.86;nan;99630.13;5009336;28;20637;-66
2022/12/22 08:44:44;;;;;;;9.57;1.33;;;12.60;99.90;;;13.03;nan;99642.38;5011468;28;20630;-66
2022/12/22 08:47:11;;;;;;;1.83;0.70;;;12.60;99.90;;;12.85;nan;99641.53;5013081;28;20629;-66
2022/12/22 08:49:42;;;;;;;2.43;1.13;;;12.60;99.90;;;12.70;nan;99643.00;5012234;28;20661;-65
2022/12/22 08:52:09;;;;;;;1.53;0.73;;;12.50;99.90;;;12.90;nan;99644.56;5014600;28;20622;-66
2022/12/22 08:54:43;;;;;;;3.70;1.23;;;12.50;99.90;;;12.88;nan;99633.41;5013232;28;21239;-66
2022/12/22 08:57:10;;;;;;;4.40;0.70;;;12.50;99.90;;;12.92;nan;99637.38;5013658;28;20703;-66
2022/12/22 08:59:37;;;;;;;2.50;1.20;;;12.60;99.90;;;12.86;nan;99630.91;5002721;28;20688;-66
2022/12/22 09:02:04;;;;;;;3.83;0.90;;;12.60;99.90;;;12.87;nan;99645.66;5022391;23;20689;-64
2022/12/22 09:04:32;;;;;;;1.40;0.90;;;12.60;99.90;;;12.84;nan;99634.69;4995004;28;20668;-63
2022/12/22 09:07:01;;;;;;;4.40;1.40;;;12.60;99.90;;;12.83;nan;99646.94;5011405;28;20664;-62
2022/12/22 09:09:32;;;;;;;0.73;0.60;;;12.50;99.90;;;12.77;nan;99650.16;5011504;28;20642;-62
2022/12/22 09:12:01;;;;;;;2.67;0.83;;;12.50;99.90;;;12.82;nan;99644.47;5011833;28;20661;-62
2022/12/22 09:14:29;;;;;;;1.77;0.63;;;12.50;99.90;;;12.91;nan;99644.38;5011195;28;20633;-63
2022/12/22 09:16:56;;;;;;;4.37;1.20;;;12.50;99.90;;;12.81;nan;99646.25;5003517;28;20657;-64
2022/12/22 09:19:23;;;;;;;3.23;1.10;;;12.50;99.90;;;12.84;nan;99639.91;5003276;28;20634;-65
2022/12/22 09:21:50;;;;;;;3.13;0.80;;;12.60;99.90;;;12.76;nan;99647.66;4993285;28;21012;-66
2022/12/22 09:24:17;;;;;;;1.80;0.90;;;12.50;99.90;;;12.78;nan;99645.72;5002475;28;20632;-62
2022/12/22 09:26:44;;;;;;;0.30;0.30;;;12.50;99.90;;;12.57;nan;99650.38;4984785;28;20657;-62
2022/12/22 09:29:14;;;;;;;0.30;0.30;;;12.50;99.90;;;12.75;nan;99656.50;5002484;28;20950;-62
2022/12/22 09:31:41;;;;;;;3.07;0.83;;;12.50;99.90;;;12.73;nan;99647.97;4999709;28;20705;-63
2022/12/22 09:34:08;;;;;;;1.23;0.80;;;12.50;99.90;;;12.75;nan;99659.13;5010937;28;21023;-65
2022/12/22 09:36:41;;;;;;;0.97;0.77;;;12.40;99.90;;;12.69;nan;99659.72;5013115;28;20610;-65
2022/12/22 09:39:09;;;;;;;2.43;0.77;;;12.40;99.90;;;12.78;nan;99664.88;5011880;28;20617;-66
2022/12/22 09:41:48;;;;;;;4.90;1.10;;;12.50;99.90;;;12.68;nan;99671.13;4992797;28;20650;-67
2022/12/22 09:44:31;;;;;;;1.97;1.00;;;12.40;99.90;;;12.71;nan;99683.94;4974928;28;20614;-62
2022/12/22 09:47:21;;;;;;;2.67;1.00;;;12.40;99.90;;;12.74;nan;99678.38;5004660;28;20626;-62
2022/12/22 09:49:50;;;;;;;1.80;0.70;;;12.50;99.90;;;12.74;nan;99686.25;5003017;28;21003;-63
2022/12/22 09:52:49;;;;;;;0.70;0.70;;;12.40;99.90;;;12.69;nan;99688.50;4994929;28;20648;-62
2022/12/22 09:55:22;;;;;;;2.83;1.10;;;12.40;99.90;;;12.67;nan;99703.53;4991115;28;20665;-64
2022/12/22 09:57:54;;;;;;;0.50;0.50;;;12.40;99.90;;;12.80;nan;99707.41;5010549;28;20752;-65
2022/12/22 10:00:25;;;;;;;1.30;0.70;;;12.40;99.90;;;12.85;nan;99712.22;5005028;28;21297;-62
2022/12/22 10:03:24;;;;;;;21.07;9.97;;;12.50;99.90;;;12.82;nan;99713.34;4999413;28;20622;-62
2022/12/22 10:06:14;;;;;;;0.90;0.90;;;12.40;99.90;;;12.92;nan;99715.91;4994878;28;20726;-64
2022/12/22 10:08:42;;;;;;;0.40;0.40;;;12.50;99.90;;;12.82;nan;99717.78;5002206;28;21045;-60
2022/12/22 10:11:17;;;;;;;2.00;0.40;;;12.50;99.90;;;12.80;nan;99725.75;5012606;28;20646;-64
2022/12/22 10:13:45;;;;;;;0.40;0.40;;;12.60;99.90;;;12.98;nan;99718.75;5011251;28;21049;-62
2022/12/22 10:16:18;;;;;;;0.40;0.40;;;12.60;99.90;;;12.94;nan;99727.88;5009084;28;20634;-63
2022/12/22 10:19:09;;;;;;;0.60;0.50;;;12.60;99.90;;;12.86;nan;99729.59;5010705;28;20665;-62
2022/12/22 10:21:38;;;;;;;0.60;0.50;;;12.60;99.90;;;12.90;nan;99729.16;5009600;28;20802;-63
2022/12/22 10:24:34;;;;;;;0.40;0.40;;;12.60;99.90;;;12.94;nan;99730.50;4993897;28;21105;-62
2022/12/22 10:27:03;;;;;;;0.63;0.50;;;12.60;99.90;;;12.79;nan;99728.53;5010662;28;20624;-62
2022/12/22 10:29:32;;;;;;;0.50;0.50;;;12.60;99.90;;;12.91;nan;99741.25;5006616;28;20627;-60
2022/12/22 10:32:20;;;;;;;0.30;0.30;;;12.60;99.90;;;13.04;nan;99749.63;5003265;28;20661;-62
2022/12/22 10:35:03;;;;;;;0.40;0.40;;;12.70;99.90;;;12.94;nan;99745.38;5010042;28;20967;-63
2022/12/22 10:37:38;;;;;;;0.40;0.40;;;12.60;99.90;;;13.03;nan;99757.59;5009610;28;20673;-62
2022/12/22 10:40:21;;;;;;;1.00;0.67;;;12.70;99.90;;;13.02;nan;99762.00;5007200;28;20683;-62
2022/12/22 10:42:54;;;;;;;1.50;0.60;;;12.60;99.90;;;13.09;nan;99754.44;5010736;28;20626;-65
2022/12/22 10:45:25;;;;;;;0.40;0.40;;;12.70;99.90;;;13.00;nan;99755.28;5009687;28;20602;-64
2022/12/22 10:47:55;;;;;;;0.40;0.40;;;12.70;99.90;;;12.96;nan;99767.00;4994577;28;20630;-62
2022/12/22 10:50:22;;;;;;;0.40;0.40;;;12.70;99.90;;;12.95;nan;99767.97;5010105;28;20642;-64
2022/12/22 10:52:57;;;;;;;0.47;0.47;;;12.70;99.90;;;13.01;nan;99777.88;5012187;28;20629;-64
2022/12/22 10:55:28;;;;;;;0.50;0.50;;;12.70;99.90;;;13.13;nan;99787.22;4992763;28;20629;-63
2022/12/22 10:58:09;;;;;;;0.50;0.40;;;12.80;99.90;;;13.13;nan;99793.28;5010208;28;20684;-62
2022/12/22 11:00:37;;;;;;;0.50;0.50;;;12.80;99.90;;;13.19;nan;99792.69;5006981;28;21104;-64
2022/12/22 11:03:10;;;;;;;0.30;0.30;;;12.80;99.90;;;13.16;nan;99797.41;5010361;28;20625;-64
2022/12/22 11:05:37;;;;;;;0.37;0.37;;;12.80;99.90;;;13.14;nan;99804.56;5006341;28;20782;-64
2022/12/22 11:08:18;;;;;;;1.40;0.73;;;12.80;99.90;;;13.05;nan;99806.25;5000621;28;20699;-62
2022/12/22 11:10:59;;;;;;;0.30;0.30;;;12.80;99.90;;;13.07;nan;99814.81;5011019;28;20735;-64
2022/12/22 11:14:12;;;;;;;0.63;0.50;;;12.80;99.90;;;13.22;nan;99812.53;4989196;28;20700;-64
2022/12/22 11:17:03;;;;;;;0.93;0.60;;;12.80;99.90;;;13.11;nan;99815.34;4956530;28;20627;-62
2022/12/22 11:20:02;;;;;;;0.70;0.70;;;12.80;99.90;;;13.09;nan;99822.50;4997574;28;20646;-64
2022/12/22 11:22:40;;;;;;;0.30;0.30;;;12.80;99.90;;;13.21;nan;99831.81;4993540;28;20964;-64
2022/12/22 11:25:34;;;;;;;0.67;0.67;;;12.80;99.90;;;13.20;nan;99819.72;5010383;28;20629;-64
2022/12/22 11:28:14;;;;;;;0.60;0.60;;;12.80;99.90;;;13.22;nan;99833.47;5009166;28;20691;-62
2022/12/22 11:31:04;;;;;;;0.93;0.80;;;12.80;99.90;;;13.09;nan;99830.38;5003672;28;20666;-64
2022/12/22 11:34:06;;;;;;;0.43;0.43;;;12.80;99.90;;;13.11;nan;99837.13;5005637;28;20645;-64
2022/12/22 11:36:51;;;;;;;0.90;0.80;;;12.80;99.90;;;13.10;nan;99832.00;4992824;28;20608;-64
2022/12/22 11:39:53;;;;;;;0.60;0.60;;;12.80;99.90;;;13.16;nan;99840.09;5010040;28;20719;-64
2022/12/22 11:42:53;;;;;;;0.50;0.50;;;12.70;99.90;;;13.05;nan;99850.78;5011053;28;20733;-64
2022/12/22 11:45:54;;;;;;;0.83;0.57;;;12.80;99.90;;;13.19;nan;99852.09;5010247;28;21263;-64
2022/12/22 11:49:02;;;;;;;0.60;0.60;;;12.80;99.90;;;13.16;nan;99857.66;5009715;28;20621;-64
2022/12/22 11:51:51;;;;;;;0.80;0.50;;;12.80;99.90;;;13.10;nan;99861.66;4993185;28;21003;-64
2022/12/22 11:54:40;;;;;;;0.60;0.60;;;12.70;99.90;;;13.03;nan;99860.53;5010005;28;20683;-64
2022/12/22 11:57:13;;;;;;;0.50;0.50;;;12.70;99.90;;;12.93;nan;99874.63;4992100;28;20625;-62
2022/12/22 12:00:14;;;;;;;0.90;0.50;;;12.70;99.90;;;12.97;nan;99862.91;5009238;28;20780;-65
2022/12/22 12:03:23;;;;;;;0.50;0.50;;;12.60;99.90;;;13.12;nan;99875.41;5009450;28;20641;-64
2022/12/22 12:05:58;;;;;;;0.40;0.40;;;12.70;99.90;;;13.12;nan;99874.59;4990716;28;20630;-64
2022/12/22 12:08:40;;;;;;;0.63;0.40;;;12.70;99.90;;;13.11;nan;99884.25;5010164;28;20616;-64
2022/12/22 12:11:39;;;;;;;0.60;0.60;;;12.70;99.90;;;13.02;nan;99881.63;5009734;28;21276;-64
2022/12/22 12:14:20;;;;;;;0.30;0.30;;;12.70;99.90;;;12.92;nan;99883.47;5010397;28;21191;-65
2022/12/22 12:17:16;;;;;;;0.50;0.50;;;12.70;99.90;;;12.99;nan;99895.84;4998811;28;20637;-64
2022/12/22 12:20:32;;;;;;;0.60;0.40;;;12.70;99.90;;;12.88;nan;99893.41;5001956;28;20625;-64
2022/12/22 12:23:43;;;;;;;0.40;0.40;;;12.60;99.90;;;12.95;nan;99901.50;4971626;28;20642;-64
2022/12/22 12:26:22;;;;;;;0.30;0.30;;;12.60;99.90;;;13.11;nan;99910.47;5009207;28;20641;-64
2022/12/22 12:29:20;;;;;;;0.57;0.50;;;12.70;99.90;;;12.97;nan;99907.41;4976115;28;20959;-64
2022/12/22 12:32:16;;;;;;;0.30;0.30;;;12.70;99.90;;;13.04;nan;99916.34;5008809;28;20665;-63
2022/12/22 12:34:48;;;;;;;0.40;0.40;;;12.70;99.90;;;12.98;nan;99932.66;4984390;28;20760;-63
2022/12/22 12:37:36;;;;;;;0.40;0.40;;;12.70;99.90;;;12.91;nan;99931.56;4978018;28;20604;-64
2022/12/22 12:40:40;;;;;;;0.40;0.40;;;12.70;99.90;;;13.03;nan;99941.72;5008539;28;21025;-63
2022/12/22 12:43:12;;;;;;;0.40;0.40;;;12.70;99.90;;;12.95;nan;99956.47;4986420;28;21004;-65
2022/12/22 12:45:46;;;;;;;1.13;0.57;;;12.70;99.90;;;12.99;nan;99956.06;4992576;28;20672;-63
2022/12/22 12:48:22;;;;;;;0.40;0.40;;;12.70;99.90;;;12.91;nan;99955.13;5011573;28;20602;-63
2022/12/22 12:50:55;;;;;;;0.30;0.30;;;12.70;99.90;;;12.98;nan;99953.59;4978378;28;21253;-63
2022/12/22 12:53:29;;;;;;;0.40;0.40;;;12.70;99.90;;;12.89;nan;99949.19;4993881;28;20630;-63
2022/12/22 12:55:58;;;;;;;0.40;0.40;;;12.70;99.90;;;13.01;nan;99956.75;4992753;28;21057;-63
2022/12/22 12:58:34;;;;;;;0.57;0.57;;;12.70;99.90;;;12.99;nan;99958.69;4996611;28;20654;-63
2022/12/22 13:01:12;;;;;;;0.50;0.50;;;12.70;99.90;;;12.90;nan;99956.09;5012769;28;20672;-63
2022/12/22 13:03:43;;;;;;;0.70;0.70;;;12.70;99.90;;;12.96;nan;99961.59;4995151;28;20630;-64
2022/12/22 13:06:45;;;;;;;0.40;0.40;;;12.70;99.90;;;12.88;nan;99963.28;4998728;28;20621;-63
2022/12/22 13:09:23;;;;;;;0.50;0.50;;;12.60;99.90;;;13.01;nan;99971.66;5012240;28;20657;-63
2022/12/22 13:12:40;;;;;;;0.70;0.40;;;12.60;99.90;;;12.98;nan;99970.13;5013581;28;20644;-62
2022/12/22 13:15:31;;;;;;;0.40;0.40;;;12.70;99.90;;;13.18;nan;99961.28;4994198;28;20636;-63
2022/12/22 13:18:08;;;;;;;0.40;0.40;;;12.80;99.90;;;13.32;nan;99962.63;5012690;28;21048;-60
2022/12/22 13:20:36;;;;;;;0.40;0.40;;;12.80;99.90;;;13.21;nan;99966.25;4995414;28;20658;-63
2022/12/22 13:23:12;;;;;;;0.40;0.40;;;12.80;99.90;;;13.28;nan;99970.91;5012998;28;20671;-63
2022/12/22 13:25:47;;;;;;;0.50;0.50;;;12.90;99.90;;;13.21;nan;99981.13;4995075;28;20637;-63
2022/12/22 13:28:17;;;;;;;0.50;0.50;;;12.80;99.90;;;13.23;nan;99985.25;4995518;28;20660;-64
2022/12/22 13:31:00;;;;;;;0.30;0.30;;;12.80;99.90;;;13.28;nan;99976.16;4994500;28;20759;-63
2022/12/22 13:33:34;;;;;;;0.30;0.30;;;12.90;99.90;;;13.31;nan;99971.44;5011535;28;20637;-64
2022/12/22 13:36:02;;;;;;;0.30;0.30;;;12.90;99.90;;;13.28;nan;99969.13;4994661;28;20641;-63
2022/12/22 13:38:31;;;;;;;0.50;0.30;;;12.90;99.90;;;13.31;nan;99975.88;4995292;28;20665;-63
2022/12/22 13:41:17;;;;;;;0.30;0.30;;;12.90;99.90;;;13.34;nan;99972.94;5011713;28;20665;-63
2022/12/22 13:44:00;;;;;;;0.40;0.40;;;12.90;99.90;;;13.46;nan;99971.81;4996140;28;20628;-64
2022/12/22 13:46:27;;;;;;;0.40;0.40;;;13.00;99.90;;;13.45;nan;99970.97;4995033;28;20645;-63
2022/12/22 13:48:59;;;;;;;0.30;0.30;;;13.10;99.90;;;13.41;nan;99974.88;5011831;28;21190;-64
2022/12/22 13:51:32;;;;;;;0.50;0.50;;;13.10;99.90;;;13.38;nan;99979.56;5011110;28;21248;-63
2022/12/22 13:54:13;;;;;;;0.30;0.30;;;13.10;99.90;;;13.50;nan;99987.09;5012188;28;20609;-63
2022/12/22 13:56:49;;;;;;;0.40;0.40;;;13.10;99.90;;;13.41;nan;99969.63;5011279;28;21072;-64
2022/12/22 13:59:24;;;;;;;0.40;0.40;;;13.10;99.90;;;13.49;nan;99974.97;5010465;28;20665;-63
2022/12/22 14:02:02;;;;;;;0.40;0.40;;;13.10;99.90;;;13.51;nan;99977.44;4994174;28;21025;-62
2022/12/22 14:04:29;;;;;;;0.30;0.30;;;13.10;99.90;;;13.55;nan;99976.16;5011746;28;21247;-62
2022/12/22 14:07:15;;;;;;;1.77;0.60;;;13.20;99.90;;;13.52;nan;99981.72;5010907;28;21198;-63
2022/12/22 14:09:47;;;;;;;0.30;0.30;;;13.10;99.90;;;13.39;nan;99981.22;5007391;28;20643;-65
2022/12/22 14:12:28;;;;;;;0.47;0.47;;;13.10;99.90;;;13.44;nan;100003.38;5012601;28;21021;-61
2022/12/22 14:14:58;;;;;;;0.40;0.40;;;13.00;99.90;;;13.38;nan;100000.50;4994965;28;20649;-64
2022/12/22 14:17:35;;;;;;;0.50;0.50;;;13.00;99.90;;;13.43;nan;100003.53;4990789;28;21189;-64
2022/12/22 14:20:31;;;;;;;0.50;0.50;;;13.00;99.90;;;13.42;nan;100013.19;4978995;28;21019;-64
2022/12/22 14:23:34;;;;;;;0.40;0.40;;;13.00;99.90;;;13.29;nan;100020.53;5012087;28;20626;-64
2022/12/22 14:26:05;;;;;;;0.60;0.30;;;13.00;99.90;;;13.30;nan;100023.97;4999769;28;20652;-64
2022/12/22 14:28:48;;;;;;;0.50;0.50;;;12.90;99.90;;;13.26;nan;100028.69;4994133;28;21122;-64
2022/12/22 14:31:16;;;;;;;0.50;0.50;;;12.90;99.90;;;13.23;nan;100034.19;4989330;28;20662;-64
2022/12/22 14:34:04;;;;;;;0.50;0.50;;;12.90;99.90;;;13.22;nan;100028.13;5009775;28;20687;-65
2022/12/22 14:36:37;;;;;;;0.70;0.70;;;12.90;99.90;;;13.36;nan;100031.28;5011147;28;20652;-65
2022/12/22 14:39:29;;;;;;;0.40;0.40;;;12.90;99.90;;;13.18;nan;100033.81;4994221;28;20712;-64
2022/12/22 14:42:00;;;;;;;0.70;0.50;;;12.90;99.90;;;13.20;nan;100029.25;4990859;28;20719;-64
2022/12/22 14:44:42;;;;;;;0.50;0.50;;;12.80;99.90;;;13.32;nan;100029.91;4994056;28;20671;-62